메인 페이지
METAR-TAF:

METAR-TAF

공항 :

두바이 국제공항

두바이, 아랍에미리트

위도: 25-15-10N, 경도: 055-21-52E, 고도: 8m

현재 날씨관측

예보는 10분 전, 23:00시(UTC)에 발표되었습니다.
9kt풍과 북서풍을 오가는
온도 24°C
습도 61%
기압 1012 hPa
시정 10km 이상
1500m 미만 상공 구름 및 적란운 없음

METAR: OMDB 232300Z 27009KT 190V310 CAVOK 24/16 Q1012 NOSIG

시각: 03:10 (23:10 UTC)

예보

예보는 6 시간 5분 전, 17:05시(UTC)에 발표되었습니다.
예보 대상 시간: 23일 18시부터 25일 00시까지 (UTC)
15kt
시정 10km 이상
1500m 미만 상공 구름 및 적란운 없음
확률 30%
23일 18시부터 24일 03시까지 (UTC)
남서5kt
확률 30%
24일 08시부터 24일 12시까지 (UTC)
서북서20kt, 순간 최대 풍속 30kt
시정: 4000m
날린먼지

TAF: OMDB 231705Z 2318/2500 28015KT CAVOK PROB30 2318/2403 22005KT PROB30 2408/2412 30020G30KT 4000 BLDU

4,000개 이상의 공항 관측 자료 및 예보 (METAR 및 TAF 보고).

지도상에서 검색 가능한 기상관측소가 노란 점과 빨간 점으로 표시되어 있습니다.

기상관측소 명을 보려면 표시 위로 마우스를 이동하세요.

날씨 관측과 예보를 보려면 클릭하세요.

지도 변경 : 확대하려면 엑스 표시가 있는 녹색 버튼, 축소하려면 빼기 표시가 있는 녹색 버튼, 다음 페이지의 지도를 보려면 녹색 화살표를 클릭하세요.


METAR-TAF: